sensor_id;sensor_type;location;lat;lon;timestamp;pressure;altitude;pressure_sealevel;temperature;humidity
48402;BME280;34201;52.438;16.744;2022-09-09T00:02:04;100565.44;;;15.95;100.00
48402;BME280;34201;52.438;16.744;2022-09-09T00:04:35;100551.63;;;15.93;100.00
48402;BME280;34201;52.438;16.744;2022-09-09T00:13:06;100552.13;;;16.01;100.00
48402;BME280;34201;52.438;16.744;2022-09-09T00:15:40;100571.38;;;15.98;100.00
48402;BME280;34201;52.438;16.744;2022-09-09T00:21:02;100581.25;;;16.11;100.00
48402;BME280;34201;52.438;16.744;2022-09-09T00:26:19;100573.78;;;16.22;100.00
48402;BME280;34201;52.438;16.744;2022-09-09T00:29:02;100567.69;;;16.21;100.00
48402;BME280;34201;52.438;16.744;2022-09-09T00:31:30;100554.59;;;16.23;100.00
48402;BME280;34201;52.438;16.744;2022-09-09T00:34:00;100542.31;;;16.25;100.00
48402;BME280;34201;52.438;16.744;2022-09-09T00:36:28;100542.72;;;16.16;100.00
48402;BME280;34201;52.438;16.744;2022-09-09T00:39:00;100543.53;;;16.18;100.00
48402;BME280;34201;52.438;16.744;2022-09-09T00:44:32;100542.63;;;16.19;100.00
48402;BME280;34201;52.438;16.744;2022-09-09T00:47:12;100540.09;;;16.17;100.00
48402;BME280;34201;52.438;16.744;2022-09-09T00:55:28;100515.16;;;16.10;100.00
48402;BME280;34201;52.438;16.744;2022-09-09T00:57:58;100527.38;;;16.10;100.00
48402;BME280;34201;52.438;16.744;2022-09-09T01:00:25;100524.91;;;16.06;100.00
48402;BME280;34201;52.438;16.744;2022-09-09T01:03:14;100521.94;;;16.14;100.00
48402;BME280;34201;52.438;16.744;2022-09-09T01:08:35;100505.03;;;16.04;100.00
48402;BME280;34201;52.438;16.744;2022-09-09T01:11:01;100510.25;;;16.04;100.00
48402;BME280;34201;52.438;16.744;2022-09-09T01:13:32;100503.84;;;15.92;100.00
48402;BME280;34201;52.438;16.744;2022-09-09T01:16:01;100493.69;;;15.86;100.00
48402;BME280;34201;52.438;16.744;2022-09-09T01:18:31;100493.84;;;15.83;100.00
48402;BME280;34201;52.438;16.744;2022-09-09T01:21:42;100494.88;;;15.79;100.00
48402;BME280;34201;52.438;16.744;2022-09-09T01:24:22;100487.34;;;15.72;100.00
48402;BME280;34201;52.438;16.744;2022-09-09T01:26:52;100487.13;;;15.77;100.00
48402;BME280;34201;52.438;16.744;2022-09-09T01:29:21;100477.31;;;15.63;100.00
48402;BME280;34201;52.438;16.744;2022-09-09T01:31:56;100486.13;;;15.61;100.00
48402;BME280;34201;52.438;16.744;2022-09-09T01:34:25;100488.00;;;15.57;100.00
48402;BME280;34201;52.438;16.744;2022-09-09T01:37:01;100482.09;;;15.53;100.00
48402;BME280;34201;52.438;16.744;2022-09-09T01:39:28;100488.38;;;15.49;100.00
48402;BME280;34201;52.438;16.744;2022-09-09T01:41:54;100481.03;;;15.38;100.00
48402;BME280;34201;52.438;16.744;2022-09-09T01:44:20;100476.59;;;15.40;100.00
48402;BME280;34201;52.438;16.744;2022-09-09T01:46:46;100488.00;;;15.38;100.00
48402;BME280;34201;52.438;16.744;2022-09-09T01:49:11;100474.19;;;15.36;100.00
48402;BME280;34201;52.438;16.744;2022-09-09T01:51:37;100476.78;;;15.36;100.00
48402;BME280;34201;52.438;16.744;2022-09-09T01:54:05;100473.63;;;15.29;100.00
48402;BME280;34201;52.438;16.744;2022-09-09T02:02:11;100459.44;;;15.16;100.00
48402;BME280;34201;52.438;16.744;2022-09-09T02:07:14;100461.31;;;15.12;100.00
48402;BME280;34201;52.438;16.744;2022-09-09T02:09:44;100461.53;;;15.08;100.00
48402;BME280;34201;52.438;16.744;2022-09-09T02:12:13;100467.84;;;15.02;100.00
48402;BME280;34201;52.438;16.744;2022-09-09T02:14:53;100465.78;;;14.89;100.00
48402;BME280;34201;52.438;16.744;2022-09-09T02:17:27;100480.28;;;14.95;100.00
48402;BME280;34201;52.438;16.744;2022-09-09T02:19:59;100485.69;;;14.91;100.00
48402;BME280;34201;52.438;16.744;2022-09-09T02:22:27;100479.81;;;14.85;100.00
48402;BME280;34201;52.438;16.744;2022-09-09T02:24:57;100475.88;;;14.77;100.00
48402;BME280;34201;52.438;16.744;2022-09-09T02:27:24;100479.31;;;14.77;100.00
48402;BME280;34201;52.438;16.744;2022-09-09T02:29:49;100485.91;;;14.86;100.00
48402;BME280;34201;52.438;16.744;2022-09-09T02:32:20;100472.34;;;14.78;100.00
48402;BME280;34201;52.438;16.744;2022-09-09T02:34:50;100474.28;;;14.73;100.00
48402;BME280;34201;52.438;16.744;2022-09-09T02:37:18;100482.91;;;14.75;100.00
48402;BME280;34201;52.438;16.744;2022-09-09T02:39:45;100483.81;;;14.74;100.00
48402;BME280;34201;52.438;16.744;2022-09-09T02:42:11;100469.50;;;14.62;100.00
48402;BME280;34201;52.438;16.744;2022-09-09T02:44:36;100481.50;;;14.66;100.00
48402;BME280;34201;52.438;16.744;2022-09-09T02:47:21;100491.09;;;14.65;100.00
48402;BME280;34201;52.438;16.744;2022-09-09T02:49:58;100501.56;;;14.64;100.00
48402;BME280;34201;52.438;16.744;2022-09-09T02:52:36;100491.47;;;14.54;100.00
48402;BME280;34201;52.438;16.744;2022-09-09T02:55:16;100491.41;;;14.56;100.00
48402;BME280;34201;52.438;16.744;2022-09-09T02:57:45;100500.91;;;14.57;100.00
48402;BME280;34201;52.438;16.744;2022-09-09T03:00:13;100507.28;;;14.50;100.00
48402;BME280;34201;52.438;16.744;2022-09-09T03:02:38;100498.50;;;14.52;100.00
48402;BME280;34201;52.438;16.744;2022-09-09T03:05:05;100493.19;;;14.55;100.00
48402;BME280;34201;52.438;16.744;2022-09-09T03:07:30;100492.09;;;14.61;100.00
48402;BME280;34201;52.438;16.744;2022-09-09T03:09:55;100484.72;;;14.73;100.00
48402;BME280;34201;52.438;16.744;2022-09-09T03:12:21;100461.63;;;14.65;100.00
48402;BME280;34201;52.438;16.744;2022-09-09T03:14:46;100442.38;;;14.47;100.00
48402;BME280;34201;52.438;16.744;2022-09-09T03:17:12;100458.00;;;14.47;100.00
48402;BME280;34201;52.438;16.744;2022-09-09T03:19:37;100454.66;;;14.65;100.00
48402;BME280;34201;52.438;16.744;2022-09-09T03:22:03;100433.03;;;14.63;100.00
48402;BME280;34201;52.438;16.744;2022-09-09T03:24:29;100416.69;;;14.60;100.00
48402;BME280;34201;52.438;16.744;2022-09-09T03:26:55;100407.97;;;14.61;100.00
48402;BME280;34201;52.438;16.744;2022-09-09T03:29:21;100402.31;;;14.51;100.00
48402;BME280;34201;52.438;16.744;2022-09-09T03:31:46;100411.91;;;14.49;100.00
48402;BME280;34201;52.438;16.744;2022-09-09T03:34:12;100403.53;;;14.42;100.00
48402;BME280;34201;52.438;16.744;2022-09-09T03:36:38;100405.72;;;14.31;100.00
48402;BME280;34201;52.438;16.744;2022-09-09T03:39:04;100425.44;;;14.36;100.00
48402;BME280;34201;52.438;16.744;2022-09-09T03:41:30;100419.00;;;14.25;100.00
48402;BME280;34201;52.438;16.744;2022-09-09T03:43:55;100416.16;;;14.09;100.00
48402;BME280;34201;52.438;16.744;2022-09-09T03:46:23;100432.53;;;14.11;100.00
48402;BME280;34201;52.438;16.744;2022-09-09T03:48:49;100442.53;;;14.22;100.00
48402;BME280;34201;52.438;16.744;2022-09-09T03:51:14;100429.13;;;14.10;100.00
48402;BME280;34201;52.438;16.744;2022-09-09T03:53:41;100437.97;;;14.04;100.00
48402;BME280;34201;52.438;16.744;2022-09-09T03:56:08;100441.44;;;14.05;100.00
48402;BME280;34201;52.438;16.744;2022-09-09T03:58:35;100457.09;;;14.03;100.00
48402;BME280;34201;52.438;16.744;2022-09-09T04:01:04;100458.63;;;14.09;100.00
48402;BME280;34201;52.438;16.744;2022-09-09T04:03:30;100450.06;;;14.06;100.00
48402;BME280;34201;52.438;16.744;2022-09-09T04:05:58;100459.94;;;14.19;100.00
48402;BME280;34201;52.438;16.744;2022-09-09T04:08:24;100451.16;;;14.22;100.00
48402;BME280;34201;52.438;16.744;2022-09-09T04:10:50;100450.88;;;14.30;100.00
48402;BME280;34201;52.438;16.744;2022-09-09T04:13:17;100457.75;;;14.31;100.00
48402;BME280;34201;52.438;16.744;2022-09-09T04:15:44;100460.34;;;14.31;100.00
48402;BME280;34201;52.438;16.744;2022-09-09T04:18:10;100462.03;;;14.32;100.00
48402;BME280;34201;52.438;16.744;2022-09-09T04:20:37;100463.69;;;14.34;100.00
48402;BME280;34201;52.438;16.744;2022-09-09T04:23:02;100458.34;;;14.37;100.00
48402;BME280;34201;52.438;16.744;2022-09-09T04:25:28;100454.91;;;14.37;100.00
48402;BME280;34201;52.438;16.744;2022-09-09T04:27:57;100475.53;;;14.42;100.00
48402;BME280;34201;52.438;16.744;2022-09-09T04:30:24;100486.16;;;14.58;100.00
48402;BME280;34201;52.438;16.744;2022-09-09T04:32:50;100480.09;;;14.57;100.00
48402;BME280;34201;52.438;16.744;2022-09-09T04:35:15;100494.75;;;14.60;100.00
48402;BME280;34201;52.438;16.744;2022-09-09T04:37:41;100512.03;;;14.62;100.00
48402;BME280;34201;52.438;16.744;2022-09-09T04:40:07;100499.28;;;14.77;100.00
48402;BME280;34201;52.438;16.744;2022-09-09T04:42:38;100502.50;;;14.83;100.00
48402;BME280;34201;52.438;16.744;2022-09-09T04:45:05;100505.53;;;14.73;100.00
48402;BME280;34201;52.438;16.744;2022-09-09T04:47:32;100508.53;;;14.84;100.00
48402;BME280;34201;52.438;16.744;2022-09-09T04:49:57;100504.03;;;14.67;100.00
48402;BME280;34201;52.438;16.744;2022-09-09T04:52:23;100527.66;;;14.83;100.00
48402;BME280;34201;52.438;16.744;2022-09-09T04:54:48;100527.91;;;14.77;100.00
48402;BME280;34201;52.438;16.744;2022-09-09T04:57:13;100525.19;;;14.80;100.00
48402;BME280;34201;52.438;16.744;2022-09-09T04:59:38;100510.66;;;14.74;100.00
48402;BME280;34201;52.438;16.744;2022-09-09T05:02:04;100527.56;;;14.86;100.00
48402;BME280;34201;52.438;16.744;2022-09-09T05:04:30;100522.72;;;14.77;100.00
48402;BME280;34201;52.438;16.744;2022-09-09T05:06:55;100532.22;;;14.78;100.00
48402;BME280;34201;52.438;16.744;2022-09-09T05:09:21;100534.44;;;14.87;100.00
48402;BME280;34201;52.438;16.744;2022-09-09T05:11:46;100538.53;;;14.93;100.00
48402;BME280;34201;52.438;16.744;2022-09-09T05:14:11;100532.22;;;14.98;100.00
48402;BME280;34201;52.438;16.744;2022-09-09T05:16:37;100526.19;;;14.98;100.00
48402;BME280;34201;52.438;16.744;2022-09-09T05:19:02;100509.06;;;14.92;100.00
48402;BME280;34201;52.438;16.744;2022-09-09T05:21:28;100509.25;;;15.08;100.00
48402;BME280;34201;52.438;16.744;2022-09-09T05:23:55;100480.66;;;15.06;100.00
48402;BME280;34201;52.438;16.744;2022-09-09T05:26:22;100457.38;;;15.03;100.00
48402;BME280;34201;52.438;16.744;2022-09-09T05:28:47;100461.69;;;15.04;100.00
48402;BME280;34201;52.438;16.744;2022-09-09T05:31:14;100454.03;;;15.20;100.00
48402;BME280;34201;52.438;16.744;2022-09-09T05:33:41;100436.28;;;15.10;100.00
48402;BME280;34201;52.438;16.744;2022-09-09T05:36:10;100445.53;;;15.17;100.00
48402;BME280;34201;52.438;16.744;2022-09-09T05:38:36;100424.69;;;15.17;100.00
48402;BME280;34201;52.438;16.744;2022-09-09T05:41:03;100407.06;;;15.03;100.00
48402;BME280;34201;52.438;16.744;2022-09-09T05:43:29;100408.34;;;14.93;100.00
48402;BME280;34201;52.438;16.744;2022-09-09T05:46:08;100443.13;;;14.92;100.00
48402;BME280;34201;52.438;16.744;2022-09-09T05:48:36;100460.63;;;14.88;100.00
48402;BME280;34201;52.438;16.744;2022-09-09T05:51:03;100454.31;;;14.94;100.00
48402;BME280;34201;52.438;16.744;2022-09-09T05:53:29;100462.13;;;14.94;100.00
48402;BME280;34201;52.438;16.744;2022-09-09T05:56:05;100458.69;;;14.93;100.00
48402;BME280;34201;52.438;16.744;2022-09-09T05:58:32;100454.25;;;14.95;100.00
48402;BME280;34201;52.438;16.744;2022-09-09T06:03:30;100475.75;;;15.00;100.00
48402;BME280;34201;52.438;16.744;2022-09-09T06:06:01;100489.19;;;14.89;100.00
48402;BME280;34201;52.438;16.744;2022-09-09T06:08:27;100471.50;;;14.98;100.00
48402;BME280;34201;52.438;16.744;2022-09-09T06:10:53;100471.63;;;14.95;100.00
48402;BME280;34201;52.438;16.744;2022-09-09T06:13:18;100477.81;;;14.92;100.00
48402;BME280;34201;52.438;16.744;2022-09-09T06:15:51;100474.63;;;14.85;100.00
48402;BME280;34201;52.438;16.744;2022-09-09T06:18:17;100469.09;;;14.93;100.00
48402;BME280;34201;52.438;16.744;2022-09-09T06:20:53;100468.75;;;15.01;100.00
48402;BME280;34201;52.438;16.744;2022-09-09T06:23:19;100461.59;;;15.06;100.00
48402;BME280;34201;52.438;16.744;2022-09-09T06:25:45;100454.31;;;15.14;100.00
48402;BME280;34201;52.438;16.744;2022-09-09T06:28:11;100432.00;;;15.28;100.00
48402;BME280;34201;52.438;16.744;2022-09-09T06:30:36;100414.34;;;15.34;100.00
48402;BME280;34201;52.438;16.744;2022-09-09T06:33:02;100403.00;;;15.35;100.00
48402;BME280;34201;52.438;16.744;2022-09-09T06:35:27;100384.34;;;15.45;100.00
48402;BME280;34201;52.438;16.744;2022-09-09T06:37:53;100375.94;;;15.57;100.00
48402;BME280;34201;52.438;16.744;2022-09-09T06:40:18;100384.91;;;15.51;100.00
48402;BME280;34201;52.438;16.744;2022-09-09T06:42:44;100383.22;;;15.31;100.00
48402;BME280;34201;52.438;16.744;2022-09-09T06:45:10;100375.09;;;15.37;100.00
48402;BME280;34201;52.438;16.744;2022-09-09T06:47:36;100361.81;;;15.44;100.00
48402;BME280;34201;52.438;16.744;2022-09-09T06:50:01;100363.84;;;15.56;100.00
48402;BME280;34201;52.438;16.744;2022-09-09T06:52:26;100357.34;;;15.65;100.00
48402;BME280;34201;52.438;16.744;2022-09-09T06:54:51;100355.38;;;15.70;100.00
48402;BME280;34201;52.438;16.744;2022-09-09T06:57:17;100348.16;;;15.75;100.00
48402;BME280;34201;52.438;16.744;2022-09-09T06:59:42;100338.75;;;15.72;100.00
48402;BME280;34201;52.438;16.744;2022-09-09T07:02:07;100342.78;;;15.80;100.00
48402;BME280;34201;52.438;16.744;2022-09-09T07:04:33;100344.66;;;15.95;100.00
48402;BME280;34201;52.438;16.744;2022-09-09T07:06:58;100329.34;;;15.87;100.00
48402;BME280;34201;52.438;16.744;2022-09-09T07:09:24;100314.59;;;15.88;100.00
48402;BME280;34201;52.438;16.744;2022-09-09T07:11:51;100307.75;;;16.03;100.00
48402;BME280;34201;52.438;16.744;2022-09-09T07:14:19;100303.63;;;16.16;100.00
48402;BME280;34201;52.438;16.744;2022-09-09T07:16:45;100294.34;;;16.11;100.00
48402;BME280;34201;52.438;16.744;2022-09-09T07:19:12;100292.41;;;16.14;100.00
48402;BME280;34201;52.438;16.744;2022-09-09T07:21:38;100293.78;;;16.04;100.00
48402;BME280;34201;52.438;16.744;2022-09-09T07:24:05;100300.06;;;16.00;100.00
48402;BME280;34201;52.438;16.744;2022-09-09T07:26:33;100308.13;;;15.95;100.00
48402;BME280;34201;52.438;16.744;2022-09-09T07:28:58;100313.19;;;15.98;100.00
48402;BME280;34201;52.438;16.744;2022-09-09T07:31:27;100311.81;;;16.08;100.00
48402;BME280;34201;52.438;16.744;2022-09-09T07:33:53;100306.44;;;16.12;100.00
48402;BME280;34201;52.438;16.744;2022-09-09T07:36:21;100306.59;;;16.26;100.00
48402;BME280;34201;52.438;16.744;2022-09-09T07:38:49;100306.59;;;16.08;100.00
48402;BME280;34201;52.438;16.744;2022-09-09T07:41:19;100326.16;;;16.35;100.00
48402;BME280;34201;52.438;16.744;2022-09-09T07:43:46;100311.13;;;16.40;100.00
48402;BME280;34201;52.438;16.744;2022-09-09T07:46:13;100313.22;;;16.49;100.00
48402;BME280;34201;52.438;16.744;2022-09-09T07:48:50;100301.63;;;16.55;100.00
48402;BME280;34201;52.438;16.744;2022-09-09T07:51:21;100308.63;;;16.54;100.00
48402;BME280;34201;52.438;16.744;2022-09-09T07:53:50;100289.38;;;16.73;100.00
48402;BME280;34201;52.438;16.744;2022-09-09T07:56:17;100258.25;;;16.86;100.00
48402;BME280;34201;52.438;16.744;2022-09-09T07:58:45;100259.69;;;17.39;100.00
48402;BME280;34201;52.438;16.744;2022-09-09T08:01:19;100237.50;;;18.07;100.00
48402;BME280;34201;52.438;16.744;2022-09-09T08:03:46;100159.66;;;18.25;100.00
48402;BME280;34201;52.438;16.744;2022-09-09T08:06:12;100148.63;;;17.91;100.00
48402;BME280;34201;52.438;16.744;2022-09-09T08:08:39;100156.75;;;17.87;100.00
48402;BME280;34201;52.438;16.744;2022-09-09T08:11:14;100169.81;;;17.87;100.00
48402;BME280;34201;52.438;16.744;2022-09-09T08:13:41;100176.38;;;17.94;100.00
48402;BME280;34201;52.438;16.744;2022-09-09T08:16:22;100184.50;;;17.89;100.00
48402;BME280;34201;52.438;16.744;2022-09-09T08:18:49;100215.00;;;18.19;100.00
48402;BME280;34201;52.438;16.744;2022-09-09T08:21:17;100204.44;;;18.21;100.00
48402;BME280;34201;52.438;16.744;2022-09-09T08:23:44;100193.09;;;18.06;100.00
48402;BME280;34201;52.438;16.744;2022-09-09T08:26:20;100200.31;;;18.17;100.00
48402;BME280;34201;52.438;16.744;2022-09-09T08:28:49;100185.47;;;18.32;100.00
48402;BME280;34201;52.438;16.744;2022-09-09T08:31:18;100186.75;;;18.53;100.00
48402;BME280;34201;52.438;16.744;2022-09-09T08:33:44;100185.41;;;18.60;100.00
48402;BME280;34201;52.438;16.744;2022-09-09T08:36:18;100179.09;;;18.50;100.00
48402;BME280;34201;52.438;16.744;2022-09-09T08:38:47;100169.44;;;18.51;100.00
48402;BME280;34201;52.438;16.744;2022-09-09T08:44:02;100172.53;;;19.79;100.00
48402;BME280;34201;52.438;16.744;2022-09-09T08:49:36;100114.91;;;20.04;99.37
48402;BME280;34201;52.438;16.744;2022-09-09T08:52:17;100111.28;;;20.67;97.67
48402;BME280;34201;52.438;16.744;2022-09-09T08:54:45;100091.84;;;20.70;96.74
48402;BME280;34201;52.438;16.744;2022-09-09T08:57:14;100103.59;;;20.40;97.25
48402;BME280;34201;52.438;16.744;2022-09-09T08:59:43;100105.97;;;21.05;95.37
48402;BME280;34201;52.438;16.744;2022-09-09T09:02:17;100059.28;;;21.19;90.59
48402;BME280;34201;52.438;16.744;2022-09-09T09:04:56;100021.31;;;21.35;87.10
48402;BME280;34201;52.438;16.744;2022-09-09T09:07:42;100047.66;;;21.69;87.23
48402;BME280;34201;52.438;16.744;2022-09-09T09:12:50;99992.28;;;21.48;82.02
48402;BME280;34201;52.438;16.744;2022-09-09T09:15:26;99985.66;;;21.19;81.01
48402;BME280;34201;52.438;16.744;2022-09-09T09:17:55;100043.47;;;20.97;83.60
48402;BME280;34201;52.438;16.744;2022-09-09T09:20:29;100076.91;;;20.95;86.50
48402;BME280;34201;52.438;16.744;2022-09-09T09:23:00;100094.25;;;20.97;88.22
48402;BME280;34201;52.438;16.744;2022-09-09T09:25:31;100108.28;;;21.20;88.65
48402;BME280;34201;52.438;16.744;2022-09-09T09:28:19;100080.97;;;21.46;86.95
48402;BME280;34201;52.438;16.744;2022-09-09T09:30:52;100052.56;;;21.85;84.82
48402;BME280;34201;52.438;16.744;2022-09-09T09:33:49;100023.09;;;22.14;81.42
48402;BME280;34201;52.438;16.744;2022-09-09T09:36:16;100072.72;;;22.30;83.50
48402;BME280;34201;52.438;16.744;2022-09-09T09:38:55;100028.03;;;22.51;81.45
48402;BME280;34201;52.438;16.744;2022-09-09T09:41:35;100040.13;;;23.07;80.60
48402;BME280;34201;52.438;16.744;2022-09-09T09:44:02;100006.63;;;22.98;78.26
48402;BME280;34201;52.438;16.744;2022-09-09T09:46:28;99985.53;;;22.98;77.53
48402;BME280;34201;52.438;16.744;2022-09-09T09:49:04;100001.72;;;23.35;78.22
48402;BME280;34201;52.438;16.744;2022-09-09T09:51:33;100034.03;;;23.58;78.49
48402;BME280;34201;52.438;16.744;2022-09-09T09:54:14;100000.47;;;23.70;77.33
48402;BME280;34201;52.438;16.744;2022-09-09T09:56:41;99983.47;;;23.22;77.38
48402;BME280;34201;52.438;16.744;2022-09-09T10:01:45;99952.09;;;23.70;74.10
48402;BME280;34201;52.438;16.744;2022-09-09T10:04:20;99957.50;;;24.19;73.96
48402;BME280;34201;52.438;16.744;2022-09-09T10:06:46;99944.56;;;24.16;74.29
48402;BME280;34201;52.438;16.744;2022-09-09T10:09:26;99969.78;;;23.79;75.89
48402;BME280;34201;52.438;16.744;2022-09-09T10:12:06;99953.19;;;23.88;73.93
48402;BME280;34201;52.438;16.744;2022-09-09T10:22:34;100099.53;;;22.46;84.97
48402;BME280;34201;52.438;16.744;2022-09-09T10:27:50;100009.94;;;22.58;80.70
48402;BME280;34201;52.438;16.744;2022-09-09T10:30:24;99987.22;;;22.78;78.08
48402;BME280;34201;52.438;16.744;2022-09-09T10:33:12;99950.59;;;23.05;75.86
48402;BME280;34201;52.438;16.744;2022-09-09T10:36:07;99964.22;;;23.32;76.26
48402;BME280;34201;52.438;16.744;2022-09-09T10:38:40;99965.28;;;24.01;75.38
48402;BME280;34201;52.438;16.744;2022-09-09T10:44:13;99927.63;;;23.99;72.93
48402;BME280;34201;52.438;16.744;2022-09-09T10:52:29;99936.56;;;22.74;74.49
48402;BME280;34201;52.438;16.744;2022-09-09T10:55:07;100005.03;;;22.09;77.92
48402;BME280;34201;52.438;16.744;2022-09-09T10:57:46;100033.63;;;22.58;78.47
48402;BME280;34201;52.438;16.744;2022-09-09T11:00:37;99979.00;;;22.27;77.35
48402;BME280;34201;52.438;16.744;2022-09-09T11:03:05;100010.53;;;22.06;78.61
48402;BME280;34201;52.438;16.744;2022-09-09T11:05:52;100035.53;;;22.34;78.75
48402;BME280;34201;52.438;16.744;2022-09-09T11:08:21;99996.84;;;22.35;77.53
48402;BME280;34201;52.438;16.744;2022-09-09T11:11:13;100009.78;;;22.27;78.69
48402;BME280;34201;52.438;16.744;2022-09-09T11:13:49;99985.47;;;22.67;76.79
48402;BME280;34201;52.438;16.744;2022-09-09T11:19:04;99958.88;;;22.05;75.98
48402;BME280;34201;52.438;16.744;2022-09-09T11:21:35;99997.28;;;22.72;76.99
48402;BME280;34201;52.438;16.744;2022-09-09T11:24:06;99934.84;;;22.94;74.08
48402;BME280;34201;52.438;16.744;2022-09-09T11:26:51;99892.03;;;22.71;72.66
48402;BME280;34201;52.438;16.744;2022-09-09T11:35:38;99950.41;;;22.55;73.56
48402;BME280;34201;52.438;16.744;2022-09-09T11:37:50;99962.94;;;23.05;73.61
48402;BME280;34201;52.438;16.744;2022-09-09T11:40:23;99893.53;;;23.76;70.06
48402;BME280;34201;52.438;16.744;2022-09-09T11:42:49;99912.38;;;23.52;71.39
48402;BME280;34201;52.438;16.744;2022-09-09T11:45:27;99865.03;;;23.70;69.23
48402;BME280;34201;52.438;16.744;2022-09-09T11:47:58;99917.56;;;23.22;72.29
48402;BME280;34201;52.438;16.744;2022-09-09T11:52:50;99844.25;;;23.26;68.81
48402;BME280;34201;52.438;16.744;2022-09-09T11:55:26;99916.22;;;22.44;72.23
48402;BME280;34201;52.438;16.744;2022-09-09T11:58:00;99910.13;;;23.47;69.87
48402;BME280;34201;52.438;16.744;2022-09-09T12:00:38;99870.13;;;23.42;69.57
48402;BME280;34201;52.438;16.744;2022-09-09T12:03:04;99916.09;;;22.87;72.10
48402;BME280;34201;52.438;16.744;2022-09-09T12:05:42;99925.47;;;23.73;70.24
48402;BME280;34201;52.438;16.744;2022-09-09T12:08:11;99834.91;;;24.12;67.41
48402;BME280;34201;52.438;16.744;2022-09-09T12:10:54;99816.03;;;24.06;66.05
48402;BME280;34201;52.438;16.744;2022-09-09T12:13:22;99826.44;;;24.18;67.14
48402;BME280;34201;52.438;16.744;2022-09-09T12:15:50;99855.03;;;23.83;68.41
48402;BME280;34201;52.438;16.744;2022-09-09T12:18:33;99842.06;;;23.31;68.28
48402;BME280;34201;52.438;16.744;2022-09-09T12:21:07;99862.97;;;23.13;68.53
48402;BME280;34201;52.438;16.744;2022-09-09T12:23:55;99886.91;;;23.91;68.17
48402;BME280;34201;52.438;16.744;2022-09-09T12:32:07;99855.22;;;24.11;67.76
48402;BME280;34201;52.438;16.744;2022-09-09T12:34:40;99800.25;;;24.34;64.86
48402;BME280;34201;52.438;16.744;2022-09-09T12:37:23;99808.94;;;23.97;66.00
48402;BME280;34201;52.438;16.744;2022-09-09T12:39:58;99859.88;;;23.58;68.79
48402;BME280;34201;52.438;16.744;2022-09-09T12:42:25;99844.09;;;23.98;66.63
48402;BME280;34201;52.438;16.744;2022-09-09T12:44:59;99888.28;;;24.25;68.47
48402;BME280;34201;52.438;16.744;2022-09-09T12:47:38;99763.28;;;24.24;63.50
48402;BME280;34201;52.438;16.744;2022-09-09T12:50:19;99774.28;;;24.30;64.63
48402;BME280;34201;52.438;16.744;2022-09-09T12:52:47;99767.66;;;23.67;64.91
48402;BME280;34201;52.438;16.744;2022-09-09T12:55:19;99821.94;;;23.50;65.98
48402;BME280;34201;52.438;16.744;2022-09-09T12:57:47;99883.00;;;24.15;67.90
48402;BME280;34201;52.438;16.744;2022-09-09T13:00:20;99798.75;;;24.32;64.65
48402;BME280;34201;52.438;16.744;2022-09-09T13:05:21;99780.72;;;24.55;63.73
48402;BME280;34201;52.438;16.744;2022-09-09T13:07:47;99763.16;;;24.36;63.66
48402;BME280;34201;52.438;16.744;2022-09-09T13:10:15;99747.31;;;24.26;62.94
48402;BME280;34201;52.438;16.744;2022-09-09T13:12:43;99744.56;;;24.18;62.33
48402;BME280;34201;52.438;16.744;2022-09-09T13:15:20;99768.22;;;23.51;63.30
48402;BME280;34201;52.438;16.744;2022-09-09T13:18:03;99810.59;;;22.99;65.87
48402;BME280;34201;52.438;16.744;2022-09-09T13:20:30;99826.56;;;22.76;67.21
48402;BME280;34201;52.438;16.744;2022-09-09T13:22:57;99889.75;;;22.87;68.38
48402;BME280;34201;52.438;16.744;2022-09-09T13:25:27;99869.91;;;23.14;67.36
48402;BME280;34201;52.438;16.744;2022-09-09T13:28:02;99846.97;;;23.75;65.88
48402;BME280;34201;52.438;16.744;2022-09-09T13:30:30;99803.53;;;23.89;65.26
48402;BME280;34201;52.438;16.744;2022-09-09T13:35:35;99831.09;;;23.46;66.01
48402;BME280;34201;52.438;16.744;2022-09-09T13:38:14;99837.16;;;23.17;67.07
48402;BME280;34201;52.438;16.744;2022-09-09T13:40:39;99808.72;;;22.89;66.95
48402;BME280;34201;52.438;16.744;2022-09-09T13:43:14;99839.09;;;22.84;67.20
48402;BME280;34201;52.438;16.744;2022-09-09T13:45:52;99879.63;;;22.62;68.70
48402;BME280;34201;52.438;16.744;2022-09-09T13:48:19;99865.97;;;22.56;68.18
48402;BME280;34201;52.438;16.744;2022-09-09T13:50:57;99871.75;;;22.71;68.95
48402;BME280;34201;52.438;16.744;2022-09-09T13:53:23;99870.72;;;22.84;68.34
48402;BME280;34201;52.438;16.744;2022-09-09T13:55:48;99838.41;;;22.61;68.39
48402;BME280;34201;52.438;16.744;2022-09-09T13:58:16;99844.44;;;22.72;67.58
48402;BME280;34201;52.438;16.744;2022-09-09T14:00:45;99832.19;;;22.62;67.91
48402;BME280;34201;52.438;16.744;2022-09-09T14:03:11;99813.66;;;22.42;68.26
48402;BME280;34201;52.438;16.744;2022-09-09T14:05:37;99869.50;;;22.25;70.29
48402;BME280;34201;52.438;16.744;2022-09-09T14:08:03;99918.13;;;22.20;71.49
48402;BME280;34201;52.438;16.744;2022-09-09T14:10:29;99933.78;;;22.33;71.90
48402;BME280;34201;52.438;16.744;2022-09-09T14:12:55;99870.66;;;22.32;70.12
48402;BME280;34201;52.438;16.744;2022-09-09T14:15:21;99898.00;;;22.19;71.05
48402;BME280;34201;52.438;16.744;2022-09-09T14:17:47;99915.16;;;22.14;70.93